createdAt,value
2023-02-08T00:01:19.739Z,44.90
2023-02-08T00:03:48.215Z,39.37
2023-02-08T00:06:16.973Z,40.70
2023-02-08T00:08:45.832Z,40.27
2023-02-08T00:11:14.476Z,40.13
2023-02-08T00:13:43.081Z,41.77
2023-02-08T00:16:14.255Z,38.33
2023-02-08T00:18:42.868Z,39.90
2023-02-08T00:21:11.689Z,39.93
2023-02-08T00:23:40.379Z,40.40
2023-02-08T00:26:09.142Z,40.07
2023-02-08T00:28:37.702Z,40.40
2023-02-08T00:31:06.833Z,41.53
2023-02-08T00:33:37.530Z,40.20
2023-02-08T00:36:07.837Z,39.53
2023-02-08T00:38:36.497Z,39.33
2023-02-08T00:41:05.244Z,39.57
2023-02-08T00:43:33.340Z,39.57
2023-02-08T00:46:01.900Z,40.17
2023-02-08T00:48:30.114Z,40.40
2023-02-08T00:51:01.019Z,38.30
2023-02-08T00:53:29.237Z,38.57
2023-02-08T00:55:57.818Z,39.10
2023-02-08T00:58:26.819Z,39.97
2023-02-08T01:00:55.243Z,40.13
2023-02-08T01:03:24.835Z,40.80
2023-02-08T01:05:52.954Z,40.10
2023-02-08T01:08:22.549Z,39.87
2023-02-08T01:10:50.585Z,40.60
2023-02-08T01:13:18.669Z,41.03
2023-02-08T01:15:46.739Z,41.33
2023-02-08T01:18:14.827Z,40.27
2023-02-08T01:20:43.034Z,39.87
2023-02-08T01:23:11.067Z,40.83
2023-02-08T01:25:41.922Z,40.77
2023-02-08T01:28:09.969Z,40.80
2023-02-08T01:30:39.308Z,40.90
2023-02-08T01:33:07.561Z,41.07
2023-02-08T01:35:35.593Z,40.33
2023-02-08T01:38:05.807Z,40.67
2023-02-08T01:40:34.136Z,39.27
2023-02-08T01:43:03.696Z,41.43
2023-02-08T01:45:33.481Z,40.63
2023-02-08T01:48:10.121Z,40.43
2023-02-08T01:50:46.332Z,41.37
2023-02-08T01:53:14.817Z,41.57
2023-02-08T01:55:47.714Z,40.00
2023-02-08T01:58:20.231Z,40.80
2023-02-08T02:00:49.157Z,39.50
2023-02-08T02:03:18.640Z,41.13
2023-02-08T02:05:53.493Z,39.13
2023-02-08T02:08:21.709Z,39.57
2023-02-08T02:10:50.837Z,40.60
2023-02-08T02:13:23.577Z,39.93
2023-02-08T02:15:52.861Z,41.67
2023-02-08T02:18:26.237Z,40.67
2023-02-08T02:21:25.590Z,41.60
2023-02-08T02:24:39.127Z,41.03
2023-02-08T02:27:34.526Z,41.83
2023-02-08T02:30:40.943Z,42.43
2023-02-08T02:33:44.731Z,40.93
2023-02-08T02:36:23.197Z,43.10
2023-02-08T02:39:03.299Z,42.73
2023-02-08T02:41:59.612Z,42.13
2023-02-08T02:44:39.202Z,44.07
2023-02-08T02:47:14.059Z,43.83
2023-02-08T02:49:51.443Z,43.93
2023-02-08T02:52:25.919Z,45.20
2023-02-08T02:54:56.383Z,45.13
2023-02-08T02:57:29.119Z,43.63
2023-02-08T02:59:59.420Z,45.87
2023-02-08T03:02:28.888Z,45.90
2023-02-08T03:04:59.013Z,47.67
2023-02-08T03:07:54.147Z,45.73
2023-02-08T03:10:53.585Z,47.57
2023-02-08T03:13:33.161Z,46.87
2023-02-08T03:16:17.123Z,46.87
2023-02-08T03:18:59.551Z,46.60
2023-02-08T03:21:39.723Z,49.47
2023-02-08T03:24:21.785Z,48.20
2023-02-08T03:26:55.366Z,48.97
2023-02-08T03:29:32.589Z,48.90
2023-02-08T03:32:04.499Z,49.37
2023-02-08T03:34:38.721Z,48.30
2023-02-08T03:37:14.120Z,47.70
2023-02-08T03:39:45.605Z,48.17
2023-02-08T03:42:18.384Z,47.63
2023-02-08T03:44:52.395Z,50.73
2023-02-08T03:47:24.359Z,50.03
2023-02-08T03:49:55.436Z,50.47
2023-02-08T03:52:26.255Z,49.50
2023-02-08T03:54:58.657Z,48.47
2023-02-08T03:57:29.778Z,51.33
2023-02-08T04:00:01.681Z,49.27
2023-02-08T04:02:45.355Z,51.77
2023-02-08T04:05:14.796Z,49.37
2023-02-08T04:07:44.332Z,50.53
2023-02-08T04:10:12.439Z,50.37
2023-02-08T04:12:40.890Z,48.27
2023-02-08T04:15:10.150Z,50.27
2023-02-08T04:17:38.154Z,52.53
2023-02-08T04:20:06.898Z,50.50
2023-02-08T04:22:35.046Z,50.20
2023-02-08T04:25:04.593Z,52.50
2023-02-08T04:27:32.741Z,54.53
2023-02-08T04:30:02.019Z,57.07
2023-02-08T04:32:30.195Z,54.23
2023-02-08T04:34:58.282Z,53.13
2023-02-08T04:37:26.425Z,52.43
2023-02-08T04:39:54.472Z,52.13
2023-02-08T04:42:24.044Z,50.60
2023-02-08T04:44:52.124Z,51.90
2023-02-08T04:47:20.168Z,52.60
2023-02-08T04:49:48.229Z,52.73
2023-02-08T04:52:16.358Z,52.07
2023-02-08T04:54:44.406Z,51.63
2023-02-08T04:57:14.684Z,53.70
2023-02-08T04:59:44.095Z,51.70
2023-02-08T05:02:12.198Z,50.67
2023-02-08T05:04:40.231Z,50.30
2023-02-08T05:07:08.453Z,52.57
2023-02-08T05:09:36.474Z,53.23
2023-02-08T05:12:04.806Z,52.43
2023-02-08T05:14:32.838Z,51.27
2023-02-08T05:17:02.355Z,49.30
2023-02-08T05:19:30.701Z,48.63
2023-02-08T05:21:58.857Z,49.20
2023-02-08T05:24:26.896Z,48.10
2023-02-08T05:26:55.056Z,51.00
2023-02-08T05:29:23.077Z,52.57
2023-02-08T05:31:51.239Z,51.63
2023-02-08T05:34:20.715Z,51.50
2023-02-08T05:36:48.874Z,52.87
2023-02-08T05:39:16.969Z,52.47
2023-02-08T05:41:45.063Z,50.67
2023-02-08T05:44:13.112Z,54.03
2023-02-08T05:46:41.335Z,54.07
2023-02-08T05:49:09.607Z,54.63
2023-02-08T05:51:39.215Z,56.60
2023-02-08T05:54:07.478Z,58.87
2023-02-08T05:56:35.884Z,60.23
2023-02-08T05:59:05.003Z,61.60
2023-02-08T06:01:33.064Z,65.87
2023-02-08T06:04:01.331Z,65.37
2023-02-08T06:06:29.698Z,73.40
2023-02-08T06:08:59.129Z,76.70
2023-02-08T06:11:28.084Z,75.53
2023-02-08T06:13:56.147Z,75.93
2023-02-08T06:16:24.320Z,77.20
2023-02-08T06:18:52.415Z,74.83
2023-02-08T06:21:20.457Z,74.67
2023-02-08T06:23:48.528Z,74.83
2023-02-08T06:26:17.994Z,74.17
2023-02-08T06:28:46.101Z,71.13
2023-02-08T06:31:14.215Z,74.03
2023-02-08T06:33:42.264Z,73.23
2023-02-08T06:36:10.652Z,74.23
2023-02-08T06:38:38.804Z,76.33
2023-02-08T06:41:07.065Z,77.27
2023-02-08T06:43:36.518Z,77.23
2023-02-08T06:46:08.579Z,77.23
2023-02-08T06:48:36.895Z,78.73
2023-02-08T06:51:05.599Z,75.67
2023-02-08T06:53:33.689Z,78.57
2023-02-08T06:56:01.718Z,77.43
2023-02-08T06:58:29.776Z,80.13
2023-02-08T07:00:59.216Z,77.87
2023-02-08T07:03:27.517Z,80.33
2023-02-08T07:06:04.440Z,77.60
2023-02-08T07:08:33.416Z,80.90
2023-02-08T07:11:01.466Z,80.07
2023-02-08T07:13:29.607Z,79.57
2023-02-08T07:15:58.986Z,82.93
2023-02-08T07:18:27.087Z,76.97
2023-02-08T07:20:55.198Z,73.07
2023-02-08T07:23:23.326Z,71.60
2023-02-08T07:25:58.777Z,74.30
2023-02-08T07:28:27.150Z,71.90
2023-02-08T07:30:55.265Z,69.63
2023-02-08T07:33:25.689Z,61.70
2023-02-08T07:35:53.998Z,54.83
2023-02-08T07:38:22.029Z,52.87
2023-02-08T07:40:50.111Z,52.33
2023-02-08T07:43:18.218Z,51.53
2023-02-08T07:45:56.041Z,52.23
2023-02-08T07:48:25.481Z,52.77
2023-02-08T07:50:53.527Z,49.33
2023-02-08T07:53:21.737Z,48.77
2023-02-08T07:55:49.771Z,49.77
2023-02-08T07:58:17.803Z,48.10
2023-02-08T08:00:45.829Z,49.10
2023-02-08T08:03:13.905Z,44.77
2023-02-08T08:05:44.021Z,47.27
2023-02-08T08:08:13.370Z,46.37
2023-02-08T08:10:42.812Z,46.97
2023-02-08T08:13:10.960Z,47.33
2023-02-08T08:15:40.321Z,47.73
2023-02-08T08:18:08.414Z,42.20
2023-02-08T08:20:36.525Z,43.10
2023-02-08T08:23:06.210Z,44.43
2023-02-08T08:25:34.302Z,45.90
2023-02-08T08:28:02.502Z,45.43
2023-02-08T08:30:31.021Z,44.70
2023-02-08T08:32:59.118Z,43.73
2023-02-08T08:35:27.194Z,44.47
2023-02-08T08:37:55.241Z,44.13
2023-02-08T08:40:25.297Z,40.77
2023-02-08T08:42:53.427Z,38.60
2023-02-08T08:45:21.495Z,40.73
2023-02-08T08:47:49.579Z,41.10
2023-02-08T08:50:17.664Z,41.00
2023-02-08T08:52:45.685Z,39.93
2023-02-08T08:55:13.744Z,38.50
2023-02-08T08:57:43.166Z,38.30
2023-02-08T09:00:12.687Z,38.30
2023-02-08T09:02:40.751Z,38.73
2023-02-08T09:05:09.292Z,37.90
2023-02-08T09:07:37.314Z,38.93
2023-02-08T09:10:05.922Z,38.47
2023-02-08T09:12:34.025Z,33.60
2023-02-08T09:15:03.638Z,34.53
2023-02-08T09:17:31.757Z,34.37
2023-02-08T09:19:59.815Z,31.73
2023-02-08T09:22:27.923Z,34.53
2023-02-08T09:24:56.009Z,32.43
2023-02-08T09:27:24.064Z,30.43
2023-02-08T09:29:52.134Z,29.07
2023-02-08T09:32:23.131Z,33.50
2023-02-08T09:34:51.295Z,32.67
2023-02-08T09:37:19.453Z,31.73
2023-02-08T09:39:47.487Z,31.97
2023-02-08T09:42:40.092Z,26.60
2023-02-08T09:45:28.048Z,25.70
2023-02-08T09:48:05.294Z,23.97
2023-02-08T09:50:36.342Z,24.00
2023-02-08T09:53:13.433Z,24.83
2023-02-08T09:55:45.268Z,25.27
2023-02-08T09:58:24.801Z,25.20
2023-02-08T10:00:54.450Z,25.60
2023-02-08T10:03:35.602Z,25.97
2023-02-08T10:06:04.997Z,23.50
2023-02-08T10:08:35.780Z,24.50
2023-02-08T10:11:17.030Z,24.00
2023-02-08T10:14:06.515Z,25.03
2023-02-08T10:16:50.605Z,25.53
2023-02-08T10:19:34.050Z,25.83
2023-02-08T10:22:14.960Z,25.93
2023-02-08T10:25:05.296Z,26.43
2023-02-08T10:27:44.054Z,25.83
2023-02-08T10:30:22.016Z,24.57
2023-02-08T10:33:00.170Z,25.23
2023-02-08T10:35:37.210Z,25.90
2023-02-08T10:38:25.261Z,27.27
2023-02-08T10:40:57.861Z,25.30
2023-02-08T10:43:36.470Z,26.17
2023-02-08T10:46:13.153Z,25.53
2023-02-08T10:49:04.955Z,25.87
2023-02-08T10:51:34.586Z,25.37
2023-02-08T10:54:02.706Z,24.60
2023-02-08T10:56:46.698Z,24.17
2023-02-08T10:59:25.086Z,24.97
2023-02-08T11:01:54.676Z,25.43
2023-02-08T11:04:22.854Z,24.40
2023-02-08T11:06:54.781Z,23.50
2023-02-08T11:09:26.747Z,23.07
2023-02-08T11:11:56.101Z,22.10
2023-02-08T11:14:40.963Z,23.43
2023-02-08T11:17:27.070Z,22.10
2023-02-08T11:19:55.312Z,22.10
2023-02-08T11:22:27.841Z,21.83
2023-02-08T11:24:59.217Z,20.73
2023-02-08T11:27:36.334Z,22.03
2023-02-08T11:30:21.388Z,21.70
2023-02-08T11:32:50.893Z,23.13
2023-02-08T11:35:23.389Z,22.07
2023-02-08T11:37:54.499Z,21.20
2023-02-08T11:40:25.822Z,21.90
2023-02-08T11:42:54.372Z,21.43
2023-02-08T11:45:25.573Z,22.97
2023-02-08T11:47:53.943Z,21.77
2023-02-08T11:50:26.421Z,21.77
2023-02-08T11:53:00.520Z,21.13
2023-02-08T11:55:31.377Z,21.87
2023-02-08T11:58:01.847Z,22.50
2023-02-08T12:00:31.953Z,22.93
2023-02-08T12:03:01.951Z,23.97
2023-02-08T12:05:41.642Z,23.57
2023-02-08T12:08:20.444Z,22.60
2023-02-08T12:11:13.236Z,24.13
2023-02-08T12:14:03.206Z,23.40
2023-02-08T12:16:49.899Z,22.53
2023-02-08T12:19:43.860Z,22.67
2023-02-08T12:22:18.012Z,21.47
2023-02-08T12:24:52.203Z,22.93
2023-02-08T12:27:33.544Z,23.20
2023-02-08T12:30:12.008Z,23.00
2023-02-08T12:32:58.682Z,23.20
2023-02-08T12:36:03.645Z,21.70
2023-02-08T12:39:19.014Z,21.27
2023-02-08T12:41:59.899Z,21.13
2023-02-08T12:44:36.762Z,20.70
2023-02-08T12:47:20.316Z,21.47
2023-02-08T12:50:00.853Z,24.00
2023-02-08T12:52:37.800Z,25.33
2023-02-08T12:55:16.180Z,23.77
2023-02-08T12:57:49.156Z,23.87
2023-02-08T13:00:22.997Z,23.53
2023-02-08T13:02:59.687Z,23.87
2023-02-08T13:05:32.797Z,22.43
2023-02-08T13:08:08.850Z,18.40
2023-02-08T13:10:40.714Z,19.30
2023-02-08T13:13:17.550Z,18.30
2023-02-08T13:15:50.513Z,18.30
2023-02-08T13:18:22.742Z,17.67
2023-02-08T13:20:54.790Z,17.90
2023-02-08T13:23:27.897Z,17.43
2023-02-08T13:25:59.919Z,17.50
2023-02-08T13:28:30.137Z,17.37
2023-02-08T13:31:03.646Z,17.07
2023-02-08T13:33:55.640Z,16.90
2023-02-08T13:36:32.282Z,16.43
2023-02-08T13:39:02.740Z,16.73
2023-02-08T13:41:33.096Z,15.33
2023-02-08T13:44:05.616Z,14.90
2023-02-08T13:46:39.681Z,15.00
2023-02-08T13:49:07.881Z,14.80
2023-02-08T13:52:03.484Z,15.37
2023-02-08T13:54:31.824Z,14.87
2023-02-08T13:57:00.129Z,15.60
2023-02-08T13:59:34.155Z,14.77
2023-02-08T14:02:30.716Z,13.27
2023-02-08T14:05:38.401Z,13.87
2023-02-08T14:08:09.073Z,13.03
2023-02-08T14:10:43.402Z,13.10
2023-02-08T14:13:28.668Z,13.37
2023-02-08T14:16:32.403Z,13.63
2023-02-08T14:19:02.913Z,13.20
2023-02-08T14:21:38.728Z,13.63
2023-02-08T14:24:10.151Z,13.50
2023-02-08T14:26:38.869Z,12.53
2023-02-08T14:29:08.049Z,13.23
2023-02-08T14:31:43.548Z,12.60
2023-02-08T14:34:27.835Z,13.27
2023-02-08T14:37:05.949Z,12.80
2023-02-08T14:39:37.449Z,14.47
2023-02-08T14:42:08.882Z,13.67
2023-02-08T14:45:05.826Z,14.13
2023-02-08T14:48:07.943Z,13.90
2023-02-08T14:50:43.545Z,13.43
2023-02-08T14:53:24.965Z,13.77
2023-02-08T14:55:57.761Z,13.60
2023-02-08T14:58:30.678Z,14.03
2023-02-08T15:01:03.148Z,13.33
2023-02-08T15:03:34.873Z,13.90
2023-02-08T15:06:35.979Z,14.00
2023-02-08T15:09:06.588Z,14.03
2023-02-08T15:11:36.508Z,13.07
2023-02-08T15:14:06.638Z,12.20
2023-02-08T15:16:37.168Z,12.50
2023-02-08T15:19:08.907Z,13.00
2023-02-08T15:21:38.980Z,12.10
2023-02-08T15:24:15.858Z,12.07
2023-02-08T15:26:48.562Z,11.83
2023-02-08T15:29:24.599Z,12.30
2023-02-08T15:31:55.698Z,12.30
2023-02-08T15:34:27.452Z,12.20
2023-02-08T15:37:00.561Z,12.50
2023-02-08T15:39:36.026Z,13.90
2023-02-08T15:42:04.141Z,13.37
2023-02-08T15:44:35.057Z,14.63
2023-02-08T15:47:06.049Z,14.17
2023-02-08T15:49:37.966Z,13.10
2023-02-08T15:52:08.624Z,16.03
2023-02-08T15:54:36.826Z,15.70
2023-02-08T15:57:10.490Z,17.97
2023-02-08T15:59:41.138Z,20.90
2023-02-08T16:02:25.340Z,22.13
2023-02-08T16:04:55.066Z,21.53
2023-02-08T16:07:30.120Z,21.93
2023-02-08T16:09:58.905Z,21.73
2023-02-08T16:12:29.077Z,22.03
2023-02-08T16:14:57.430Z,19.70
2023-02-08T16:17:37.700Z,21.13
2023-02-08T16:20:30.079Z,21.93
2023-02-08T16:23:01.766Z,23.20
2023-02-08T16:25:43.349Z,25.20
2023-02-08T16:28:26.130Z,26.70
2023-02-08T16:30:54.908Z,26.03
2023-02-08T16:33:23.425Z,42.83
2023-02-08T16:35:53.261Z,28.70
2023-02-08T16:38:24.115Z,30.87
2023-02-08T16:40:53.781Z,32.50
2023-02-08T16:43:28.711Z,32.37
2023-02-08T16:46:30.180Z,34.17
2023-02-08T16:48:59.031Z,35.43
2023-02-08T16:51:31.764Z,32.77
2023-02-08T16:54:07.067Z,31.23
2023-02-08T16:56:36.298Z,32.33
2023-02-08T16:59:04.839Z,35.10
2023-02-08T17:01:33.512Z,33.83
2023-02-08T17:04:01.776Z,34.50
2023-02-08T17:06:33.368Z,35.90
2023-02-08T17:09:03.495Z,38.07
2023-02-08T17:11:32.677Z,37.87
2023-02-08T17:14:00.965Z,37.83
2023-02-08T17:16:31.329Z,36.83
2023-02-08T17:19:00.534Z,37.53
2023-02-08T17:21:29.355Z,36.43
2023-02-08T17:23:59.568Z,38.07
2023-02-08T17:26:30.628Z,37.53
2023-02-08T17:29:00.223Z,37.50
2023-02-08T17:31:29.737Z,35.77
2023-02-08T17:34:05.196Z,35.73
2023-02-08T17:36:35.588Z,35.43
2023-02-08T17:39:06.357Z,37.87
2023-02-08T17:41:34.535Z,39.63
2023-02-08T17:44:02.668Z,38.33
2023-02-08T17:46:31.705Z,39.27
2023-02-08T17:49:01.637Z,42.03
2023-02-08T17:51:30.084Z,42.00
2023-02-08T17:53:58.354Z,41.13
2023-02-08T17:56:32.556Z,41.20
2023-02-08T17:59:03.714Z,43.00
2023-02-08T18:01:33.732Z,38.53
2023-02-08T18:04:04.727Z,38.43
2023-02-08T18:06:33.756Z,42.60
2023-02-08T18:09:01.960Z,43.57
2023-02-08T18:11:31.510Z,43.27
2023-02-08T18:14:00.637Z,44.30
2023-02-08T18:16:29.273Z,45.13
2023-02-08T18:18:59.223Z,42.30
2023-02-08T18:21:27.715Z,46.90
2023-02-08T18:23:56.472Z,48.07
2023-02-08T18:26:26.281Z,43.30
2023-02-08T18:28:55.894Z,43.97
2023-02-08T18:31:25.453Z,43.33
2023-02-08T18:33:54.227Z,41.93
2023-02-08T18:36:23.318Z,39.07
2023-02-08T18:38:53.381Z,37.60
2023-02-08T18:41:23.797Z,36.30
2023-02-08T18:43:53.412Z,39.67
2023-02-08T18:46:24.902Z,41.87
2023-02-08T18:48:54.129Z,43.27
2023-02-08T18:51:24.714Z,45.20
2023-02-08T18:53:55.260Z,49.00
2023-02-08T18:56:26.577Z,52.33
2023-02-08T18:58:56.474Z,54.70
2023-02-08T19:01:26.258Z,56.37
2023-02-08T19:03:54.510Z,51.03
2023-02-08T19:06:25.758Z,45.87
2023-02-08T19:08:58.494Z,45.33
2023-02-08T19:11:29.355Z,42.47
2023-02-08T19:13:59.295Z,41.57
2023-02-08T19:16:29.127Z,43.17
2023-02-08T19:18:57.624Z,42.53
2023-02-08T19:21:25.728Z,41.67
2023-02-08T19:23:54.627Z,42.90
2023-02-08T19:26:24.678Z,44.37
2023-02-08T19:28:54.529Z,44.67
2023-02-08T19:31:24.817Z,45.73
2023-02-08T19:33:58.573Z,47.90
2023-02-08T19:36:29.676Z,49.50
2023-02-08T19:38:58.676Z,51.20
2023-02-08T19:41:28.873Z,50.10
2023-02-08T19:43:57.010Z,49.53
2023-02-08T19:46:27.652Z,50.07
2023-02-08T19:49:00.303Z,50.57
2023-02-08T19:51:29.005Z,53.07
2023-02-08T19:53:58.191Z,51.93
2023-02-08T19:56:26.353Z,53.37
2023-02-08T19:58:54.958Z,51.37
2023-02-08T20:01:24.308Z,50.60
2023-02-08T20:03:55.006Z,49.53
2023-02-08T20:06:26.547Z,48.53
2023-02-08T20:08:55.185Z,48.37
2023-02-08T20:11:25.958Z,48.90
2023-02-08T20:13:54.839Z,48.43
2023-02-08T20:16:23.534Z,48.53
2023-02-08T20:18:52.349Z,50.03
2023-02-08T20:21:21.100Z,50.90
2023-02-08T20:23:51.625Z,52.00
2023-02-08T20:26:22.800Z,54.03
2023-02-08T20:28:53.107Z,52.50
2023-02-08T20:31:24.280Z,56.03
2023-02-08T20:33:53.034Z,54.07
2023-02-08T20:36:22.720Z,56.37
2023-02-08T20:38:53.762Z,59.73
2023-02-08T20:41:23.003Z,63.77
2023-02-08T20:43:51.499Z,64.20
2023-02-08T20:46:23.057Z,72.33
2023-02-08T20:48:52.256Z,81.03
2023-02-08T20:51:23.353Z,90.63
2023-02-08T20:53:53.866Z,80.33
2023-02-08T20:56:23.977Z,72.87
2023-02-08T20:58:53.680Z,72.10
2023-02-08T21:01:28.108Z,73.87
2023-02-08T21:03:57.785Z,76.47
2023-02-08T21:06:29.466Z,75.33
2023-02-08T21:09:00.608Z,78.37
2023-02-08T21:11:30.992Z,81.43
2023-02-08T21:14:00.026Z,78.10
2023-02-08T21:16:29.028Z,79.87
2023-02-08T21:18:57.520Z,75.77
2023-02-08T21:21:26.335Z,76.17
2023-02-08T21:23:56.762Z,76.97
2023-02-08T21:26:27.159Z,81.80
2023-02-08T21:28:56.663Z,80.17
2023-02-08T21:31:25.558Z,81.37
2023-02-08T21:33:54.401Z,81.57
2023-02-08T21:36:25.208Z,77.27
2023-02-08T21:38:53.406Z,77.47
2023-02-08T21:41:23.174Z,79.23
2023-02-08T21:43:55.061Z,77.20
2023-02-08T21:46:24.815Z,79.47
2023-02-08T21:49:10.798Z,79.57
2023-02-08T21:51:56.960Z,76.80
2023-02-08T21:54:45.853Z,83.73
2023-02-08T21:57:18.697Z,79.40
2023-02-08T21:59:49.187Z,78.73
2023-02-08T22:02:23.452Z,77.10
2023-02-08T22:05:09.843Z,72.53
2023-02-08T22:07:43.273Z,71.27
2023-02-08T22:10:12.416Z,70.97
2023-02-08T22:12:41.966Z,74.37
2023-02-08T22:15:13.005Z,74.20
2023-02-08T22:17:41.076Z,70.33
2023-02-08T22:20:11.431Z,74.47
2023-02-08T22:22:39.753Z,76.00
2023-02-08T22:25:08.093Z,73.53
2023-02-08T22:27:36.284Z,74.03
2023-02-08T22:30:04.627Z,73.47
2023-02-08T22:32:34.115Z,72.10
2023-02-08T22:35:02.313Z,69.30
2023-02-08T22:37:30.372Z,70.50
2023-02-08T22:39:58.538Z,70.63
2023-02-08T22:42:27.924Z,70.37
2023-02-08T22:44:56.600Z,69.00
2023-02-08T22:47:25.104Z,71.03
2023-02-08T22:49:57.802Z,67.47
2023-02-08T22:52:26.031Z,69.47
2023-02-08T22:54:54.735Z,65.57
2023-02-08T22:57:22.801Z,64.80
2023-02-08T22:59:50.861Z,63.60
2023-02-08T23:02:18.986Z,68.00
2023-02-08T23:04:47.020Z,69.33
2023-02-08T23:07:16.794Z,71.43
2023-02-08T23:09:44.842Z,69.40
2023-02-08T23:12:12.982Z,69.07
2023-02-08T23:14:41.125Z,68.97
2023-02-08T23:17:09.245Z,67.00
2023-02-08T23:19:37.311Z,67.43
2023-02-08T23:22:05.465Z,73.00
2023-02-08T23:24:35.180Z,70.40
2023-02-08T23:27:03.280Z,75.23
2023-02-08T23:29:31.354Z,69.63
2023-02-08T23:31:59.494Z,73.83
2023-02-08T23:34:28.425Z,74.10
2023-02-08T23:36:56.485Z,74.73
2023-02-08T23:39:24.582Z,78.20
2023-02-08T23:41:56.474Z,81.13
2023-02-08T23:44:26.590Z,76.60
2023-02-08T23:46:54.743Z,77.53
2023-02-08T23:49:22.865Z,79.03
2023-02-08T23:51:50.909Z,78.53
2023-02-08T23:54:19.127Z,78.13
2023-02-08T23:56:47.146Z,78.37
2023-02-08T23:59:16.612Z,77.53
